Pacific Solarelle — V7UB8 — position and weather

sailwx.info

Track history (hours):
 
Tides and Currents Weather Stations Pressure Air Temp Water Temp Dewpoint Dewpoint Depression Visibility Wind Speed Wind Dir Waves Ship Positions

Pacific Solarelle

Last reported at 2014-Jul-29 21:30 UTC. Time now 2014-Jul-30 17:09 UTC.
Position N 32°30' E 025°58'.

Length 180 m; draft 7.9 m.

Type: Tanker. MMSI: 538003925.

Date/timePositionNaut miles runAvg speedWind from/ knotsBaromVisibWave heightAir tempDewpointWater temp
2014-Jul-29 21:30N 32°30' E 025°58'1213.2
2014-Jul-29 20:33N 32°25' E 026°11'1313.2
2014-Jul-29 19:33N 32°20' E 026°26'1313.3
2014-Jul-29 18:32N 32°15' E 026°41'1313.2
2014-Jul-29 17:33N 32°11' E 026°55'1313.3
2014-Jul-29 16:33N 32°06' E 027°10'1313.2
2014-Jul-29 15:33N 32°01' E 027°24'1313.1
2014-Jul-29 14:33N 31°56' E 027°39'1413.0
2014-Jul-29 13:29N 31°50' E 027°54'1212.9
2014-Jul-29 12:33N 31°46' E 028°07'1312.8
2014-Jul-29 11:33N 31°41' E 028°21'1212.6
2014-Jul-29 10:33N 31°37' E 028°34'1212.4
2014-Jul-29 09:33N 31°32' E 028°48'1212.5
2014-Jul-29 08:33N 31°27' E 029°01'1512.7
2014-Jul-29 07:21N 31°22' E 029°18'3111.0
2014-Jul-29 04:32N 31°10' E 029°51'0 0.0
2014-Jul-28 18:32N 31°10' E 029°51'  
Track history (hours):
 
Tides and Currents Weather Stations Pressure Air Temp Water Temp Dewpoint Dewpoint Depression Visibility Wind Speed Wind Dir Waves Ship Positions

Pacific Solarelle

Last reported at 2014-Jul-29 21:30 UTC. Time now 2014-Jul-30 17:09 UTC.
Position N 32°30' E 025°58'.

Length 180 m; draft 7.9 m.

Type: Tanker. MMSI: 538003925.

Date/timePositionNaut miles runAvg speedWind from/ knotsBaromVisibWave heightAir tempDewpointWater temp
2014-Jul-29 21:30N 32°30' E 025°58'1213.2
2014-Jul-29 20:33N 32°25' E 026°11'1313.2
2014-Jul-29 19:33N 32°20' E 026°26'1313.3
2014-Jul-29 18:32N 32°15' E 026°41'1313.2
2014-Jul-29 17:33N 32°11' E 026°55'1313.3
2014-Jul-29 16:33N 32°06' E 027°10'1313.2
2014-Jul-29 15:33N 32°01' E 027°24'1313.1
2014-Jul-29 14:33N 31°56' E 027°39'1413.0
2014-Jul-29 13:29N 31°50' E 027°54'1212.9
2014-Jul-29 12:33N 31°46' E 028°07'1312.8
2014-Jul-29 11:33N 31°41' E 028°21'1212.6
2014-Jul-29 10:33N 31°37' E 028°34'1212.4
2014-Jul-29 09:33N 31°32' E 028°48'1212.5
2014-Jul-29 08:33N 31°27' E 029°01'1512.7
2014-Jul-29 07:21N 31°22' E 029°18'3111.0
2014-Jul-29 04:32N 31°10' E 029°51'0 0.0
2014-Jul-28 18:32N 31°10' E 029°51'  

Dump ship's entire track history